createdAt,value
2023-02-13T00:00:38.707Z,47.70
2023-02-13T00:01:38.717Z,47.70
2023-02-13T00:02:38.734Z,47.70
2023-02-13T00:03:38.745Z,47.70
2023-02-13T00:04:38.662Z,47.70
2023-02-13T00:05:38.643Z,47.70
2023-02-13T00:06:38.640Z,47.70
2023-02-13T00:07:38.628Z,47.70
2023-02-13T00:08:38.630Z,47.70
2023-02-13T00:09:38.610Z,47.70
2023-02-13T00:10:38.595Z,47.70
2023-02-13T00:11:38.592Z,47.70
2023-02-13T00:12:38.597Z,47.70
2023-02-13T00:13:38.561Z,47.70
2023-02-13T00:14:38.567Z,47.70
2023-02-13T00:15:38.562Z,47.70
2023-02-13T00:16:38.558Z,47.70
2023-02-13T00:17:38.523Z,47.70
2023-02-13T00:18:38.517Z,47.70
2023-02-13T00:19:38.506Z,47.70
2023-02-13T00:20:38.499Z,47.70
2023-02-13T00:21:38.523Z,47.70
2023-02-13T00:22:38.477Z,47.80
2023-02-13T00:23:38.474Z,47.70
2023-02-13T00:24:38.463Z,47.80
2023-02-13T00:25:38.442Z,47.82
2023-02-13T00:26:38.444Z,47.80
2023-02-13T00:27:38.431Z,47.80
2023-02-13T00:28:38.507Z,47.70
2023-02-13T00:29:38.403Z,47.82
2023-02-13T00:30:38.415Z,47.82
2023-02-13T00:31:38.551Z,47.80
2023-02-13T00:32:38.382Z,47.80
2023-02-13T00:33:38.364Z,47.82
2023-02-13T00:34:38.350Z,47.80
2023-02-13T00:35:38.338Z,47.82
2023-02-13T00:36:38.341Z,47.80
2023-02-13T00:37:38.324Z,47.82
2023-02-13T00:38:38.317Z,47.82
2023-02-13T00:39:38.293Z,47.82
2023-02-13T00:40:38.291Z,47.82
2023-02-13T00:41:38.295Z,47.82
2023-02-13T00:42:38.269Z,47.82
2023-02-13T00:43:38.264Z,47.82
2023-02-13T00:44:38.246Z,47.82
2023-02-13T00:45:38.233Z,47.82
2023-02-13T00:46:38.307Z,47.82
2023-02-13T00:47:38.235Z,47.82
2023-02-13T00:48:38.212Z,47.82
2023-02-13T00:49:38.206Z,47.82
2023-02-13T00:50:38.240Z,47.82
2023-02-13T00:51:38.183Z,47.82
2023-02-13T00:52:38.170Z,47.82
2023-02-13T00:53:38.169Z,47.82
2023-02-13T00:54:38.166Z,47.82
2023-02-13T00:55:38.136Z,47.82
2023-02-13T00:56:38.138Z,47.82
2023-02-13T00:57:38.114Z,47.82
2023-02-13T00:58:38.150Z,47.82
2023-02-13T00:59:38.136Z,47.82
2023-02-13T01:00:38.092Z,47.82
2023-02-13T01:01:38.122Z,47.82
2023-02-13T01:02:38.067Z,47.82
2023-02-13T01:03:38.148Z,47.82
2023-02-13T01:04:38.049Z,47.82
2023-02-13T01:05:38.047Z,47.92
2023-02-13T01:06:38.034Z,47.82
2023-02-13T01:07:38.020Z,47.82
2023-02-13T01:08:38.007Z,47.82
2023-02-13T01:09:38.004Z,47.82
2023-02-13T01:10:38.023Z,47.82
2023-02-13T01:11:37.989Z,47.82
2023-02-13T01:12:37.974Z,47.82
2023-02-13T01:13:43.952Z,47.82
2023-02-13T01:14:37.947Z,47.82
2023-02-13T01:15:37.929Z,47.82
2023-02-13T01:16:37.956Z,47.82
2023-02-13T01:17:37.922Z,47.92
2023-02-13T01:18:37.931Z,47.82
2023-02-13T01:19:37.894Z,47.82
2023-02-13T01:20:37.887Z,47.92
2023-02-13T01:21:37.884Z,47.82
2023-02-13T01:22:37.869Z,47.92
2023-02-13T01:23:37.886Z,47.92
2023-02-13T01:24:37.851Z,47.92
2023-02-13T01:25:37.834Z,47.82
2023-02-13T01:26:37.837Z,47.92
2023-02-13T01:27:37.840Z,47.82
2023-02-13T01:28:37.922Z,47.82
2023-02-13T01:29:37.805Z,47.92
2023-02-13T01:30:37.921Z,47.92
2023-02-13T01:31:37.877Z,47.92
2023-02-13T01:32:37.774Z,47.82
2023-02-13T01:33:37.761Z,47.92
2023-02-13T01:34:37.755Z,47.92
2023-02-13T01:35:37.749Z,47.92
2023-02-13T01:36:37.772Z,47.92
2023-02-13T01:37:37.705Z,47.92
2023-02-13T01:38:37.708Z,47.92
2023-02-13T01:39:37.685Z,47.92
2023-02-13T01:40:37.682Z,47.92
2023-02-13T01:41:37.677Z,47.92
2023-02-13T01:42:37.660Z,47.92
2023-02-13T01:43:37.653Z,47.92
2023-02-13T01:44:37.652Z,47.92
2023-02-13T01:45:37.635Z,47.92
2023-02-13T01:46:37.687Z,47.92
2023-02-13T01:47:37.600Z,47.92
2023-02-13T01:48:37.597Z,47.92
2023-02-13T01:49:37.582Z,47.92
2023-02-13T01:50:37.639Z,47.92
2023-02-13T01:51:37.563Z,47.92
2023-02-13T01:52:37.556Z,47.92
2023-02-13T01:53:37.543Z,47.92
2023-02-13T01:54:37.535Z,47.92
2023-02-13T01:55:37.531Z,47.92
2023-02-13T01:56:37.518Z,48.02
2023-02-13T01:57:37.503Z,48.02
2023-02-13T01:58:37.503Z,48.02
2023-02-13T01:59:37.528Z,48.02
2023-02-13T02:00:37.469Z,48.02
2023-02-13T02:01:37.510Z,48.02
2023-02-13T02:02:37.519Z,47.92
2023-02-13T02:03:37.451Z,48.02
2023-02-13T02:04:37.430Z,48.02
2023-02-13T02:05:37.424Z,48.02
2023-02-13T02:06:37.401Z,47.92
2023-02-13T02:07:37.401Z,48.02
2023-02-13T02:08:37.397Z,48.02
2023-02-13T02:09:37.381Z,48.02
2023-02-13T02:10:37.365Z,48.02
2023-02-13T02:11:37.378Z,48.02
2023-02-13T02:12:37.346Z,48.02
2023-02-13T02:13:37.345Z,48.02
2023-02-13T02:14:37.342Z,48.02
2023-02-13T02:15:37.320Z,48.02
2023-02-13T02:16:37.304Z,48.02
2023-02-13T02:17:37.305Z,48.02
2023-02-13T02:18:37.294Z,48.12
2023-02-13T02:19:37.278Z,48.02
2023-02-13T02:20:37.267Z,48.02
2023-02-13T02:21:37.260Z,48.02
2023-02-13T02:22:37.249Z,48.12
2023-02-13T02:23:37.257Z,48.12
2023-02-13T02:24:37.226Z,48.12
2023-02-13T02:25:37.217Z,48.12
2023-02-13T02:26:37.204Z,48.02
2023-02-13T02:27:37.196Z,48.12
2023-02-13T02:28:37.372Z,48.02
2023-02-13T02:29:37.188Z,48.02
2023-02-13T02:30:37.202Z,48.12
2023-02-13T02:31:37.167Z,48.12
2023-02-13T02:32:37.152Z,48.12
2023-02-13T02:33:37.136Z,48.12
2023-02-13T02:34:37.132Z,48.12
2023-02-13T02:35:37.130Z,48.12
2023-02-13T02:36:37.109Z,48.12
2023-02-13T02:37:37.099Z,48.12
2023-02-13T02:38:37.085Z,48.12
2023-02-13T02:39:37.085Z,48.12
2023-02-13T02:40:37.067Z,48.02
2023-02-13T02:41:37.064Z,48.12
2023-02-13T02:42:37.051Z,48.12
2023-02-13T02:43:37.037Z,48.12
2023-02-13T02:44:37.051Z,48.12
2023-02-13T02:45:37.050Z,48.12
2023-02-13T02:46:37.054Z,48.12
2023-02-13T02:47:37.006Z,48.12
2023-02-13T02:48:36.978Z,48.12
2023-02-13T02:49:36.975Z,48.12
2023-02-13T02:50:37.037Z,48.22
2023-02-13T02:51:36.948Z,48.12
2023-02-13T02:52:36.939Z,48.12
2023-02-13T02:53:36.927Z,48.12
2023-02-13T02:54:36.923Z,48.12
2023-02-13T02:55:36.920Z,48.12
2023-02-13T02:56:36.902Z,48.12
2023-02-13T02:57:36.884Z,48.12
2023-02-13T02:58:36.880Z,48.12
2023-02-13T02:59:36.866Z,48.12
2023-02-13T03:00:36.943Z,48.12
2023-02-13T03:01:36.857Z,48.22
2023-02-13T03:02:36.837Z,48.22
2023-02-13T03:03:36.821Z,48.25
2023-02-13T03:04:36.810Z,48.22
2023-02-13T03:05:36.808Z,48.22
2023-02-13T03:06:36.804Z,48.25
2023-02-13T03:07:36.780Z,48.25
2023-02-13T03:08:36.776Z,48.22
2023-02-13T03:09:36.761Z,48.22
2023-02-13T03:10:36.744Z,48.22
2023-02-13T03:11:36.747Z,48.25
2023-02-13T03:12:36.724Z,48.25
2023-02-13T03:13:36.728Z,48.25
2023-02-13T03:14:36.706Z,48.22
2023-02-13T03:15:36.706Z,48.25
2023-02-13T03:16:36.724Z,48.25
2023-02-13T03:17:36.680Z,48.25
2023-02-13T03:18:36.705Z,48.14
2023-02-13T03:19:36.669Z,48.25
2023-02-13T03:20:36.646Z,48.25
2023-02-13T03:21:36.636Z,48.25
2023-02-13T03:22:36.621Z,48.25
2023-02-13T03:23:36.613Z,48.25
2023-02-13T03:24:36.624Z,48.25
2023-02-13T03:25:36.602Z,48.25
2023-02-13T03:26:36.601Z,48.25
2023-02-13T03:27:36.580Z,48.25
2023-02-13T03:28:36.605Z,48.25
2023-02-13T03:29:36.554Z,48.25
2023-02-13T03:30:36.622Z,48.25
2023-02-13T03:31:36.621Z,48.25
2023-02-13T03:32:36.518Z,48.25
2023-02-13T03:33:36.591Z,48.25
2023-02-13T03:34:36.498Z,48.25
2023-02-13T03:35:36.558Z,48.25
2023-02-13T03:36:36.473Z,48.25
2023-02-13T03:37:36.481Z,48.25
2023-02-13T03:38:36.457Z,48.25
2023-02-13T03:39:36.453Z,48.25
2023-02-13T03:40:36.434Z,48.25
2023-02-13T03:41:36.426Z,48.25
2023-02-13T03:42:36.448Z,48.35
2023-02-13T03:43:36.407Z,48.35
2023-02-13T03:44:36.393Z,48.35
2023-02-13T03:45:36.404Z,48.35
2023-02-13T03:46:36.375Z,48.35
2023-02-13T03:47:36.382Z,48.35
2023-02-13T03:48:36.353Z,48.35
2023-02-13T03:49:36.350Z,48.35
2023-02-13T03:50:36.372Z,48.35
2023-02-13T03:51:36.328Z,48.35
2023-02-13T03:52:36.309Z,48.35
2023-02-13T03:53:36.318Z,48.35
2023-02-13T03:54:36.288Z,48.35
2023-02-13T03:55:36.298Z,48.35
2023-02-13T03:56:36.267Z,48.35
2023-02-13T03:57:36.284Z,48.35
2023-02-13T03:58:36.267Z,48.35
2023-02-13T03:59:36.248Z,48.35
2023-02-13T04:00:36.239Z,48.35
2023-02-13T04:01:36.286Z,48.35
2023-02-13T04:02:36.230Z,48.35
2023-02-13T04:03:36.213Z,48.35
2023-02-13T04:04:36.196Z,48.35
2023-02-13T04:05:36.186Z,48.35
2023-02-13T04:06:36.170Z,48.25
2023-02-13T04:07:36.158Z,48.35
2023-02-13T04:08:36.164Z,48.35
2023-02-13T04:09:36.189Z,48.35
2023-02-13T04:10:36.158Z,48.35
2023-02-13T04:11:36.145Z,48.35
2023-02-13T04:12:36.115Z,48.35
2023-02-13T04:13:36.134Z,48.35
2023-02-13T04:14:36.133Z,48.35
2023-02-13T04:15:36.156Z,48.35
2023-02-13T04:16:36.122Z,48.35
2023-02-13T04:17:36.063Z,48.44
2023-02-13T04:18:36.078Z,48.35
2023-02-13T04:19:36.089Z,48.35
2023-02-13T04:20:36.057Z,48.35
2023-02-13T04:21:36.019Z,48.35
2023-02-13T04:22:36.039Z,48.35
2023-02-13T04:23:36.975Z,48.35
2023-02-13T04:24:35.986Z,48.35
2023-02-13T04:25:36.181Z,48.35
2023-02-13T04:26:35.966Z,48.35
2023-02-13T04:27:35.964Z,48.25
2023-02-13T04:28:35.986Z,48.35
2023-02-13T04:29:35.945Z,48.35
2023-02-13T04:30:36.092Z,48.25
2023-02-13T04:31:36.069Z,48.25
2023-02-13T04:32:35.919Z,48.35
2023-02-13T04:33:35.903Z,48.35
2023-02-13T04:34:35.881Z,48.35
2023-02-13T04:35:35.882Z,48.25
2023-02-13T04:36:35.869Z,48.35
2023-02-13T04:37:35.856Z,48.35
2023-02-13T04:38:35.850Z,48.35
2023-02-13T04:39:35.852Z,48.35
2023-02-13T04:40:35.891Z,48.35
2023-02-13T04:41:35.847Z,48.35
2023-02-13T04:42:35.807Z,48.35
2023-02-13T04:43:35.809Z,48.35
2023-02-13T04:44:35.782Z,48.35
2023-02-13T04:45:35.776Z,48.35
2023-02-13T04:46:35.765Z,48.35
2023-02-13T04:47:35.768Z,48.35
2023-02-13T04:48:37.830Z,48.35
2023-02-13T04:49:35.761Z,48.35
2023-02-13T04:50:35.784Z,48.35
2023-02-13T04:51:35.714Z,48.35
2023-02-13T04:52:35.723Z,48.35
2023-02-13T04:53:35.705Z,48.32
2023-02-13T04:54:35.681Z,48.22
2023-02-13T04:55:35.682Z,48.22
2023-02-13T04:56:35.666Z,48.22
2023-02-13T04:57:35.665Z,48.22
2023-02-13T04:58:35.641Z,48.22
2023-02-13T04:59:35.633Z,48.22
2023-02-13T05:00:35.634Z,48.12
2023-02-13T05:01:35.653Z,48.12
2023-02-13T05:02:35.607Z,48.12
2023-02-13T05:03:35.617Z,48.12
2023-02-13T05:04:35.660Z,48.02
2023-02-13T05:05:35.585Z,48.02
2023-02-13T05:06:35.573Z,48.02
2023-02-13T05:07:35.559Z,48.02
2023-02-13T05:08:35.534Z,47.92
2023-02-13T05:09:35.531Z,47.92
2023-02-13T05:10:35.525Z,47.92
2023-02-13T05:11:35.520Z,47.90
2023-02-13T05:12:35.514Z,47.80
2023-02-13T05:13:35.490Z,47.80
2023-02-13T05:14:35.480Z,47.80
2023-02-13T05:15:35.508Z,47.80
2023-02-13T05:16:35.465Z,47.70
2023-02-13T05:17:35.458Z,47.70
2023-02-13T05:18:35.436Z,47.70
2023-02-13T05:19:35.432Z,47.70
2023-02-13T05:20:35.414Z,47.70
2023-02-13T05:21:35.429Z,47.70
2023-02-13T05:22:35.408Z,47.60
2023-02-13T05:23:35.411Z,47.60
2023-02-13T05:24:35.377Z,47.60
2023-02-13T05:25:35.438Z,47.60
2023-02-13T05:26:35.368Z,47.60
2023-02-13T05:27:35.363Z,47.60
2023-02-13T05:28:35.470Z,47.50
2023-02-13T05:29:35.328Z,47.50
2023-02-13T05:30:35.384Z,47.50
2023-02-13T05:31:35.492Z,47.50
2023-02-13T05:32:35.307Z,47.50
2023-02-13T05:33:35.291Z,47.50
2023-02-13T05:34:35.282Z,47.50
2023-02-13T05:35:35.280Z,47.50
2023-02-13T05:36:35.258Z,47.38
2023-02-13T05:37:35.261Z,47.38
2023-02-13T05:38:35.239Z,47.38
2023-02-13T05:39:35.249Z,47.38
2023-02-13T05:40:35.227Z,47.38
2023-02-13T05:41:35.238Z,47.38
2023-02-13T05:42:35.203Z,47.27
2023-02-13T05:43:35.210Z,47.27
2023-02-13T05:44:35.185Z,47.27
2023-02-13T05:45:35.129Z,47.27
2023-02-13T05:46:35.215Z,47.27
2023-02-13T05:47:35.154Z,47.27
2023-02-13T05:48:35.154Z,47.17
2023-02-13T05:49:35.144Z,47.17
2023-02-13T05:50:35.193Z,47.17
2023-02-13T05:51:35.113Z,47.17
2023-02-13T05:52:35.105Z,47.17
2023-02-13T05:53:35.118Z,47.17
2023-02-13T05:54:35.081Z,47.17
2023-02-13T05:55:35.074Z,47.07
2023-02-13T05:56:35.055Z,47.17
2023-02-13T05:57:35.048Z,47.07
2023-02-13T05:58:35.051Z,47.07
2023-02-13T05:59:35.037Z,47.07
2023-02-13T06:00:35.032Z,47.07
2023-02-13T06:01:35.014Z,47.07
2023-02-13T06:02:35.045Z,47.07
2023-02-13T06:03:35.022Z,46.97
2023-02-13T06:04:34.979Z,46.97
2023-02-13T06:05:34.974Z,46.97
2023-02-13T06:06:34.995Z,46.97
2023-02-13T06:07:34.973Z,46.97
2023-02-13T06:08:34.933Z,46.97
2023-02-13T06:09:34.927Z,46.97
2023-02-13T06:10:34.935Z,46.97
2023-02-13T06:11:34.912Z,46.95
2023-02-13T06:12:34.904Z,46.95
2023-02-13T06:13:34.895Z,46.85
2023-02-13T06:14:34.876Z,46.95
2023-02-13T06:15:34.873Z,46.95
2023-02-13T06:16:34.852Z,46.85
2023-02-13T06:17:34.850Z,46.85
2023-02-13T06:18:34.851Z,46.85
2023-02-13T06:19:34.824Z,46.85
2023-02-13T06:20:34.814Z,46.85
2023-02-13T06:21:34.767Z,46.85
2023-02-13T06:22:34.807Z,46.85
2023-02-13T06:23:34.794Z,46.85
2023-02-13T06:24:34.738Z,46.85
2023-02-13T06:25:34.717Z,46.85
2023-02-13T06:26:34.756Z,46.85
2023-02-13T06:27:34.754Z,46.75
2023-02-13T06:28:34.773Z,46.75
2023-02-13T06:29:34.678Z,46.75
2023-02-13T06:30:34.822Z,46.75
2023-02-13T06:31:34.751Z,46.75
2023-02-13T06:32:34.669Z,46.75
2023-02-13T06:33:34.641Z,46.75
2023-02-13T06:34:34.627Z,46.75
2023-02-13T06:35:34.618Z,46.75
2023-02-13T06:36:34.606Z,46.75
2023-02-13T06:37:34.605Z,46.75
2023-02-13T06:38:34.597Z,46.75
2023-02-13T06:39:34.588Z,46.75
2023-02-13T06:40:34.572Z,46.75
2023-02-13T06:41:34.557Z,46.75
2023-02-13T06:42:34.658Z,46.75
2023-02-13T06:43:34.548Z,46.65
2023-02-13T06:44:34.547Z,46.75
2023-02-13T06:45:34.527Z,46.75
2023-02-13T06:46:34.605Z,46.65
2023-02-13T06:47:34.493Z,46.65
2023-02-13T06:48:34.511Z,46.65
2023-02-13T06:49:34.486Z,46.65
2023-02-13T06:50:34.466Z,46.65
2023-02-13T06:51:34.458Z,46.65
2023-02-13T06:52:34.446Z,46.65
2023-02-13T06:53:34.442Z,46.65
2023-02-13T06:54:46.803Z,46.65
2023-02-13T06:55:34.421Z,46.65
2023-02-13T06:56:34.438Z,46.65
2023-02-13T06:57:34.399Z,46.65
2023-02-13T06:58:34.412Z,46.65
2023-02-13T06:59:34.372Z,46.55
2023-02-13T07:00:34.406Z,46.55
2023-02-13T07:01:34.365Z,46.55
2023-02-13T07:02:34.378Z,46.65
2023-02-13T07:03:34.334Z,46.55
2023-02-13T07:04:34.331Z,46.55
2023-02-13T07:05:34.407Z,46.53
2023-02-13T07:06:34.466Z,46.53
2023-02-13T07:07:34.307Z,46.53
2023-02-13T07:08:34.299Z,46.53
2023-02-13T07:09:34.332Z,46.53
2023-02-13T07:10:34.285Z,46.42
2023-02-13T07:11:34.265Z,46.42
2023-02-13T07:12:34.250Z,46.42
2023-02-13T07:13:34.249Z,46.42
2023-02-13T07:14:34.232Z,46.42
2023-02-13T07:15:34.222Z,46.42
2023-02-13T07:16:34.315Z,46.42
2023-02-13T07:17:34.193Z,46.42
2023-02-13T07:18:34.213Z,46.42
2023-02-13T07:19:34.190Z,46.42
2023-02-13T07:20:34.182Z,46.33
2023-02-13T07:21:34.208Z,46.33
2023-02-13T07:22:34.183Z,46.33
2023-02-13T07:23:34.152Z,46.33
2023-02-13T07:24:34.138Z,46.33
2023-02-13T07:25:34.131Z,46.33
2023-02-13T07:26:34.129Z,46.23
2023-02-13T07:27:34.090Z,46.23
2023-02-13T07:28:34.136Z,46.23
2023-02-13T07:29:34.079Z,46.23
2023-02-13T07:30:34.241Z,46.23
2023-02-13T07:31:34.068Z,46.23
2023-02-13T07:32:34.053Z,46.23
2023-02-13T07:33:34.074Z,46.23
2023-02-13T07:34:34.033Z,46.23
2023-02-13T07:35:34.015Z,46.12
2023-02-13T07:36:34.040Z,46.12
2023-02-13T07:37:33.994Z,46.12
2023-02-13T07:38:34.000Z,46.12
2023-02-13T07:39:33.976Z,46.12
2023-02-13T07:40:33.986Z,46.03
2023-02-13T07:41:33.969Z,46.03
2023-02-13T07:42:33.954Z,46.00
2023-02-13T07:43:33.957Z,46.00
2023-02-13T07:44:33.935Z,46.00
2023-02-13T07:45:33.943Z,46.00
2023-02-13T07:46:34.023Z,46.00
2023-02-13T07:47:33.911Z,46.20
2023-02-13T07:48:33.901Z,46.50
2023-02-13T07:49:33.893Z,47.00
2023-02-13T07:50:33.874Z,46.70
2023-02-13T07:51:33.868Z,46.61
2023-02-13T07:52:33.859Z,46.41
2023-02-13T07:53:33.858Z,46.61
2023-02-13T07:54:33.859Z,46.70
2023-02-13T07:55:33.830Z,47.00
2023-02-13T07:56:33.825Z,46.61
2023-02-13T07:57:33.835Z,46.50
2023-02-13T07:58:33.825Z,47.50
2023-02-13T07:59:33.788Z,46.70
2023-02-13T08:00:33.789Z,46.48
2023-02-13T08:01:33.859Z,46.48
2023-02-13T08:02:33.782Z,45.78
2023-02-13T08:03:33.760Z,45.36
2023-02-13T08:04:33.737Z,45.06
2023-02-13T08:05:34.215Z,44.64
2023-02-13T08:06:33.739Z,44.54
2023-02-13T08:07:33.738Z,44.34
2023-02-13T08:08:33.705Z,44.24
2023-02-13T08:09:33.683Z,44.12
2023-02-13T08:10:33.784Z,44.01
2023-02-13T08:11:33.667Z,44.01
2023-02-13T08:12:33.664Z,43.82
2023-02-13T08:13:33.652Z,43.70
2023-02-13T08:14:33.650Z,43.59
2023-02-13T08:15:33.616Z,43.59
2023-02-13T08:16:33.678Z,43.49
2023-02-13T08:17:33.621Z,43.49
2023-02-13T08:18:33.599Z,43.99
2023-02-13T08:19:33.587Z,44.12
2023-02-13T08:20:33.596Z,44.21
2023-02-13T08:21:33.546Z,44.42
2023-02-13T08:22:33.554Z,44.21
2023-02-13T08:23:33.590Z,44.42
2023-02-13T08:24:33.533Z,44.21
2023-02-13T08:25:33.556Z,44.29
2023-02-13T08:26:33.512Z,44.42
2023-02-13T08:27:33.490Z,45.01
2023-02-13T08:28:33.525Z,45.21
2023-02-13T08:29:33.467Z,45.34
2023-02-13T08:30:33.479Z,45.01
2023-02-13T08:31:33.511Z,44.82
2023-02-13T08:32:48.319Z,44.62
2023-02-13T08:33:33.425Z,44.42
2023-02-13T08:34:33.432Z,44.29
2023-02-13T08:35:33.409Z,44.20
2023-02-13T08:36:33.401Z,44.09
2023-02-13T08:37:33.406Z,44.09
2023-02-13T08:38:33.371Z,43.90
2023-02-13T08:39:33.360Z,43.87
2023-02-13T08:40:33.374Z,43.67
2023-02-13T08:41:33.352Z,43.77
2023-02-13T08:42:33.327Z,43.98
2023-02-13T08:43:33.317Z,44.09
2023-02-13T08:44:33.309Z,44.17
2023-02-13T08:45:33.315Z,44.27
2023-02-13T08:46:33.376Z,44.89
2023-02-13T08:47:33.285Z,44.39
2023-02-13T08:48:33.270Z,44.79
2023-02-13T08:49:33.259Z,44.59
2023-02-13T08:50:35.093Z,45.01
2023-02-13T08:51:33.232Z,45.01
2023-02-13T08:52:33.226Z,44.79
2023-02-13T08:53:33.217Z,44.79
2023-02-13T08:54:33.208Z,44.70
2023-02-13T08:55:33.194Z,45.09
2023-02-13T08:56:33.190Z,44.79
2023-02-13T08:57:33.168Z,45.09
2023-02-13T08:58:33.169Z,44.92
2023-02-13T08:59:33.206Z,45.12
2023-02-13T09:00:33.150Z,45.01
2023-02-13T09:01:33.185Z,44.89
2023-02-13T09:02:33.162Z,44.59
2023-02-13T09:03:33.224Z,44.70
2023-02-13T09:04:33.097Z,44.70
2023-02-13T09:05:33.110Z,44.59
2023-02-13T09:06:33.089Z,44.59
2023-02-13T09:07:33.069Z,44.49
2023-02-13T09:08:33.057Z,44.49
2023-02-13T09:09:33.041Z,44.09
2023-02-13T09:10:33.043Z,44.29
2023-02-13T09:11:33.038Z,44.29
2023-02-13T09:12:33.024Z,44.29
2023-02-13T09:13:33.007Z,44.29
2023-02-13T09:14:33.006Z,44.20
2023-02-13T09:15:33.024Z,44.07
2023-02-13T09:16:33.045Z,44.07
2023-02-13T09:17:32.964Z,44.17
2023-02-13T09:18:32.969Z,44.17
2023-02-13T09:19:32.941Z,44.17
2023-02-13T09:20:34.736Z,44.79
2023-02-13T09:21:32.935Z,44.59
2023-02-13T09:22:32.923Z,44.59
2023-02-13T09:23:32.910Z,44.39
2023-02-13T09:24:38.274Z,44.49
2023-02-13T09:25:32.973Z,44.29
2023-02-13T09:26:32.872Z,44.20
2023-02-13T09:27:32.863Z,44.20
2023-02-13T09:28:32.899Z,44.17
2023-02-13T09:29:32.845Z,44.09
2023-02-13T09:30:32.910Z,43.87
2023-02-13T09:31:32.898Z,43.99
2023-02-13T09:32:32.818Z,44.07
2023-02-13T09:33:32.792Z,44.07
2023-02-13T09:34:32.795Z,44.07
2023-02-13T09:35:32.790Z,43.87
2023-02-13T09:36:32.769Z,43.77
2023-02-13T09:37:32.758Z,43.77
2023-02-13T09:38:32.750Z,43.77
2023-02-13T09:39:32.741Z,43.67
2023-02-13T09:40:32.735Z,43.57
2023-02-13T09:41:32.709Z,43.57
2023-02-13T09:42:32.702Z,43.67
2023-02-13T09:43:32.692Z,43.45
2023-02-13T09:44:32.702Z,43.55
2023-02-13T09:45:32.692Z,43.25
2023-02-13T09:46:32.751Z,43.77
2023-02-13T09:47:32.678Z,43.77
2023-02-13T09:48:32.637Z,43.98
2023-02-13T09:49:32.633Z,44.27
2023-02-13T09:50:32.629Z,43.87
2023-02-13T09:51:32.605Z,44.17
2023-02-13T09:52:32.618Z,44.07
2023-02-13T09:53:32.605Z,43.98
2023-02-13T09:54:32.581Z,44.49
2023-02-13T09:55:32.569Z,44.70
2023-02-13T09:56:32.566Z,44.37
2023-02-13T09:57:32.557Z,44.37
2023-02-13T09:58:32.542Z,44.07
2023-02-13T09:59:32.518Z,44.07
2023-02-13T10:00:32.512Z,44.07
2023-02-13T10:01:32.597Z,43.65
2023-02-13T10:02:32.493Z,43.45
2023-02-13T10:03:32.476Z,43.55
2023-02-13T10:04:32.569Z,38.40
2023-02-13T10:05:32.581Z,37.45
2023-02-13T10:06:32.493Z,44.62
2023-02-13T10:07:32.431Z,45.95
2023-02-13T10:08:32.436Z,46.04
2023-02-13T10:09:32.494Z,46.62
2023-02-13T10:10:32.477Z,46.93
2023-02-13T10:11:32.400Z,46.81
2023-02-13T10:12:32.388Z,46.28
2023-02-13T10:13:32.415Z,46.18
2023-02-13T10:14:32.850Z,45.76
2023-02-13T10:15:32.430Z,45.76
2023-02-13T10:16:32.358Z,45.64
2023-02-13T10:17:32.331Z,44.93
2023-02-13T10:18:32.342Z,45.04
2023-02-13T10:19:32.322Z,44.51
2023-02-13T10:20:32.389Z,44.21
2023-02-13T10:21:32.314Z,44.42
2023-02-13T10:22:32.876Z,44.32
2023-02-13T10:23:32.288Z,44.32
2023-02-13T10:24:32.261Z,44.71
2023-02-13T10:25:32.246Z,44.49
2023-02-13T10:26:32.229Z,43.90
2023-02-13T10:27:32.235Z,44.29
2023-02-13T10:28:32.253Z,44.29
2023-02-13T10:29:32.394Z,44.20
2023-02-13T10:30:32.254Z,44.49
2023-02-13T10:31:35.337Z,44.39
2023-02-13T10:32:32.249Z,43.99
2023-02-13T10:33:32.157Z,44.70
2023-02-13T10:34:32.159Z,43.99
2023-02-13T10:35:32.178Z,44.29
2023-02-13T10:36:32.126Z,44.70
2023-02-13T10:37:32.189Z,44.20
2023-02-13T10:38:32.105Z,44.70
2023-02-13T10:39:32.112Z,44.70
2023-02-13T10:40:32.188Z,44.59
2023-02-13T10:41:32.240Z,44.29
2023-02-13T10:42:32.092Z,44.49
2023-02-13T10:43:33.423Z,45.29
2023-02-13T10:44:32.543Z,45.00
2023-02-13T10:45:32.622Z,45.20
2023-02-13T10:46:32.154Z,44.79
2023-02-13T10:47:32.023Z,44.79
2023-02-13T10:48:32.674Z,44.78
2023-02-13T10:49:33.095Z,44.57
2023-02-13T10:50:32.560Z,44.57
2023-02-13T10:51:31.998Z,44.47
2023-02-13T10:52:32.323Z,44.37
2023-02-13T10:53:33.937Z,44.47
2023-02-13T10:54:32.315Z,44.17
2023-02-13T10:55:33.473Z,44.17
2023-02-13T10:56:32.494Z,44.27
2023-02-13T10:57:32.181Z,44.37
2023-02-13T10:58:31.966Z,44.37
2023-02-13T10:59:32.619Z,43.87
2023-02-13T11:00:34.615Z,44.37
2023-02-13T11:01:32.057Z,44.47
2023-02-13T11:02:31.883Z,44.37
2023-02-13T11:03:31.866Z,44.27
2023-02-13T11:04:31.930Z,44.25
2023-02-13T11:05:32.007Z,44.35
2023-02-13T11:06:31.947Z,44.45
2023-02-13T11:07:31.864Z,44.17
2023-02-13T11:08:31.855Z,44.57
2023-02-13T11:09:31.885Z,44.87
2023-02-13T11:10:32.328Z,44.97
2023-02-13T11:11:31.887Z,44.47
2023-02-13T11:12:31.848Z,43.67
2023-02-13T11:13:31.777Z,43.98
2023-02-13T11:14:31.805Z,44.17
2023-02-13T11:15:31.735Z,43.87
2023-02-13T11:16:32.701Z,44.17
2023-02-13T11:17:32.197Z,43.77
2023-02-13T11:18:31.697Z,43.57
2023-02-13T11:19:31.688Z,44.17
2023-02-13T11:20:31.671Z,44.05
2023-02-13T11:21:31.654Z,44.15
2023-02-13T11:22:31.640Z,44.05
2023-02-13T11:23:31.644Z,43.85
2023-02-13T11:24:31.615Z,43.75
2023-02-13T11:25:31.652Z,43.85
2023-02-13T11:26:31.623Z,43.35
2023-02-13T11:27:31.679Z,43.95
2023-02-13T11:28:31.692Z,43.65
2023-02-13T11:29:31.583Z,43.95
2023-02-13T11:30:31.582Z,43.55
2023-02-13T11:31:31.632Z,43.45
2023-02-13T11:32:31.530Z,43.55
2023-02-13T11:33:31.538Z,43.75
2023-02-13T11:34:31.525Z,43.95
2023-02-13T11:35:31.509Z,44.05
2023-02-13T11:36:31.495Z,44.05
2023-02-13T11:37:31.494Z,44.05
2023-02-13T11:38:31.480Z,43.95
2023-02-13T11:39:31.485Z,43.27
2023-02-13T11:40:31.455Z,44.47
2023-02-13T11:41:31.468Z,44.17
2023-02-13T11:42:31.438Z,44.78
2023-02-13T11:43:31.427Z,44.87
2023-02-13T11:44:31.433Z,44.87
2023-02-13T11:45:31.409Z,44.67
2023-02-13T11:46:31.484Z,44.27
2023-02-13T11:47:31.384Z,43.87
2023-02-13T11:48:31.374Z,43.37
2023-02-13T11:49:35.687Z,43.57
2023-02-13T11:51:41.453Z,43.15
2023-02-13T11:52:42.374Z,43.15
2023-02-13T11:53:42.367Z,43.15
2023-02-13T11:54:42.375Z,43.15
2023-02-13T11:55:42.341Z,42.76
2023-02-13T11:56:55.657Z,42.76
2023-02-13T11:57:42.342Z,42.65
2023-02-13T11:58:42.473Z,42.55
2023-02-13T11:59:42.309Z,42.63
2023-02-13T12:00:42.295Z,42.93
2023-02-13T12:01:42.278Z,42.76
2023-02-13T12:02:42.395Z,43.03
2023-02-13T12:03:42.367Z,43.03
2023-02-13T12:04:42.260Z,43.13
2023-02-13T12:05:42.256Z,42.83
2023-02-13T12:06:42.255Z,43.13
2023-02-13T12:07:42.218Z,43.13
2023-02-13T12:08:42.220Z,43.03
2023-02-13T12:09:42.196Z,42.83
2023-02-13T12:10:42.192Z,42.83
2023-02-13T12:11:42.175Z,42.83
2023-02-13T12:12:42.167Z,43.05
2023-02-13T12:13:42.164Z,43.33
2023-02-13T12:14:42.163Z,43.33
2023-02-13T12:15:42.143Z,43.23
2023-02-13T12:16:42.196Z,43.03
2023-02-13T12:17:42.108Z,43.25
2023-02-13T12:18:42.112Z,43.35
2023-02-13T12:19:42.148Z,43.43
2023-02-13T12:20:42.081Z,42.85
2023-02-13T12:21:42.081Z,43.05
2023-02-13T12:22:42.086Z,43.05
2023-02-13T12:23:42.081Z,43.85
2023-02-13T12:24:42.050Z,43.85
2023-02-13T12:25:42.026Z,43.55
2023-02-13T12:26:42.023Z,43.55
2023-02-13T12:27:42.007Z,43.15
2023-02-13T12:28:42.021Z,43.25
2023-02-13T12:29:41.998Z,43.85
2023-02-13T12:30:41.991Z,43.85
2023-02-13T12:31:41.994Z,43.65
2023-02-13T12:32:41.961Z,43.85
2023-02-13T12:33:41.964Z,43.85
2023-02-13T12:34:41.937Z,43.35
2023-02-13T12:35:41.915Z,43.55
2023-02-13T12:36:41.912Z,43.95
2023-02-13T12:37:41.935Z,44.15
2023-02-13T12:38:41.897Z,43.95
2023-02-13T12:39:41.884Z,44.15
2023-02-13T12:40:41.869Z,43.95
2023-02-13T12:41:41.873Z,44.25
2023-02-13T12:42:41.874Z,44.57
2023-02-13T12:43:41.835Z,44.67
2023-02-13T12:44:41.843Z,44.17
2023-02-13T12:45:41.824Z,44.57
2023-02-13T12:46:41.824Z,44.57
2023-02-13T12:47:41.810Z,44.67
2023-02-13T12:48:41.818Z,44.97
2023-02-13T12:49:41.770Z,45.27
2023-02-13T12:50:41.767Z,45.57
2023-02-13T12:51:41.778Z,44.97
2023-02-13T12:52:41.740Z,45.05
2023-02-13T12:53:41.734Z,45.35